Time;durP1;ratioP1;P1;durP2;ratioP2;P2;SDS_P1;SDS_P2;PMS_P1;PMS_P2;Temp;Humidity;BMP_temperature;BMP_pressure;BME280_temperature;BME280_humidity;BME280_pressure;Samples;Min_cycle;Max_cycle;Signal;HPM_P1;HPM_P2
2022/08/22 00:00:16;;;;;;;6.10;3.20;;;;;;;19.88;67.68;98484.96;238995;1192;140588;-58
2022/08/22 00:05:55;;;;;;;5.90;3.90;;;;;;;19.90;67.83;98474.17;239034;1192;139041;-58
2022/08/22 00:11:16;;;;;;;7.90;4.50;;;;;;;19.94;67.90;98471.86;239067;1192;139165;-58
2022/08/22 00:16:32;;;;;;;8.90;4.50;;;;;;;19.92;67.83;98472.48;238781;1192;138745;-57
2022/08/22 00:21:48;;;;;;;7.30;4.40;;;;;;;19.87;67.75;98463.97;238812;1191;138757;-57
2022/08/22 00:27:16;;;;;;;8.40;4.80;;;;;;;19.84;67.77;98465.42;237733;1191;141937;-57
2022/08/22 00:32:34;;;;;;;10.70;5.70;;;;;;;19.83;67.87;98465.34;238786;1190;139843;-57
2022/08/22 00:37:45;;;;;;;13.00;6.90;;;;;;;19.80;68.02;98464.75;239009;1190;139488;-59
2022/08/22 00:43:07;;;;;;;10.20;6.10;;;;;;;19.81;68.13;98465.25;238773;1192;139133;-58
2022/08/22 00:48:32;;;;;;;10.40;5.30;;;;;;;19.84;68.27;98467.45;238748;1191;139934;-58
2022/08/22 00:54:04;;;;;;;11.90;6.30;;;;;;;19.86;68.24;98465.38;238646;1192;139429;-56
2022/08/22 00:59:44;;;;;;;14.20;6.90;;;;;;;19.84;68.26;98465.55;238701;1190;139738;-58
2022/08/22 01:04:58;;;;;;;13.50;6.00;;;;;;;19.81;68.25;98458.60;239101;1190;141956;-58
2022/08/22 01:10:22;;;;;;;12.40;6.00;;;;;;;19.80;68.26;98455.37;238745;1190;139829;-58
2022/08/22 01:15:29;;;;;;;13.50;7.10;;;;;;;19.83;68.49;98456.65;238654;1192;140331;-58
2022/08/22 01:21:09;;;;;;;13.20;6.60;;;;;;;19.88;68.55;98454.80;238818;1190;138853;-58
2022/08/22 01:26:21;;;;;;;12.30;6.60;;;;;;;19.81;68.35;98451.14;238858;1190;139645;-57
2022/08/22 01:32:04;;;;;;;13.10;6.90;;;;;;;19.79;68.37;98447.80;238706;1191;139484;-58
2022/08/22 01:37:31;;;;;;;13.50;7.00;;;;;;;19.83;68.63;98447.73;238504;1190;140085;-58
2022/08/22 01:42:59;;;;;;;16.10;7.60;;;;;;;19.92;68.80;98446.54;238561;1192;139330;-57
2022/08/22 01:48:13;;;;;;;17.60;7.80;;;;;;;19.94;68.61;98445.06;237639;1190;139328;-58
2022/08/22 01:53:35;;;;;;;15.10;7.10;;;;;;;19.94;68.47;98454.98;238479;1191;140518;-58
2022/08/22 01:58:58;;;;;;;18.10;8.20;;;;;;;19.94;68.66;98459.96;239010;1190;140897;-58
2022/08/22 02:04:09;;;;;;;19.20;8.70;;;;;;;19.97;68.67;98459.98;238194;1190;141130;-58
2022/08/22 02:09:39;;;;;;;18.40;8.00;;;;;;;20.01;68.83;98453.13;238902;1192;139310;-58
2022/08/22 02:15:04;;;;;;;14.70;7.20;;;;;;;20.06;68.62;98452.56;238687;1192;140131;-58
2022/08/22 02:20:23;;;;;;;18.10;8.20;;;;;;;20.07;68.79;98450.13;238683;1192;139667;-58
2022/08/22 02:25:31;;;;;;;17.10;8.60;;;;;;;20.11;68.75;98446.46;238501;1191;138987;-58
2022/08/22 02:30:53;;;;;;;15.20;7.60;;;;;;;20.12;68.76;98446.67;239042;1192;139560;-58
2022/08/22 02:36:03;;;;;;;16.30;8.10;;;;;;;20.13;68.64;98449.88;238792;1192;140285;-59
2022/08/22 02:41:17;;;;;;;17.20;8.60;;;;;;;20.11;68.57;98449.13;238943;1190;139543;-59
2022/08/22 02:46:29;;;;;;;20.60;9.40;;;;;;;20.12;68.80;98449.62;238678;1192;140089;-58
2022/08/22 02:51:45;;;;;;;19.90;8.80;;;;;;;20.13;68.75;98452.92;238817;1192;139165;-58
2022/08/22 02:56:56;;;;;;;20.30;9.40;;;;;;;20.14;68.71;98450.22;239004;1191;139629;-58
2022/08/22 03:02:26;;;;;;;19.60;9.30;;;;;;;20.12;68.51;98448.36;239004;1190;139825;-57
2022/08/22 03:07:38;;;;;;;22.20;10.10;;;;;;;20.15;68.91;98457.17;239054;1190;139185;-58
2022/08/22 03:12:43;;;;;;;21.30;9.10;;;;;;;20.18;68.87;98454.98;238967;1190;238224;-58
2022/08/22 03:17:59;;;;;;;19.60;9.20;;;;;;;20.21;68.74;98448.92;239031;1190;139554;-59
2022/08/22 03:23:16;;;;;;;21.20;10.40;;;;;;;20.27;68.94;98449.86;238623;1190;139549;-57
2022/08/22 03:28:25;;;;;;;21.50;10.10;;;;;;;20.29;68.85;98456.78;238883;1191;139015;-58
2022/08/22 03:33:30;;;;;;;19.70;9.60;;;;;;;20.31;68.83;98454.86;238948;1191;139165;-58
2022/08/22 03:38:33;;;;;;;20.20;9.10;;;;;;;20.34;68.78;98455.39;239057;1190;141034;-57
2022/08/22 03:44:07;;;;;;;17.10;9.10;;;;;;;20.36;68.76;98454.68;238751;1192;139828;-58
2022/08/22 03:49:31;;;;;;;30.30;11.00;;;;;;;20.35;68.64;98461.06;239014;1191;139327;-58
2022/08/22 03:55:25;;;;;;;27.30;9.50;;;;;;;20.35;68.77;98465.19;238321;1192;139645;-58
2022/08/22 04:00:36;;;;;;;21.80;9.70;;;;;;;20.39;68.71;98465.83;238188;1191;141721;-58
2022/08/22 04:05:57;;;;;;;17.80;9.60;;;;;;;20.46;68.82;98472.46;237656;1191;139428;-57
2022/08/22 04:11:20;;;;;;;19.50;8.80;;;;;;;20.48;68.80;98479.77;238976;1192;138966;-57
2022/08/22 04:16:50;;;;;;;21.90;8.20;;;;;;;20.37;68.53;98482.75;238823;1191;139064;-57
2022/08/22 04:21:53;;;;;;;16.80;7.40;;;;;;;20.30;68.53;98487.30;238590;1191;141532;-56
2022/08/22 04:27:14;;;;;;;15.60;7.60;;;;;;;20.32;68.78;98484.58;238880;1190;139691;-56
2022/08/22 04:32:35;;;;;;;16.20;7.40;;;;;;;20.38;68.98;98478.42;239016;1190;139053;-56
2022/08/22 04:37:50;;;;;;;18.10;6.90;;;;;;;20.41;68.82;98483.27;238860;1191;140053;-56
2022/08/22 04:43:04;;;;;;;14.90;7.20;;;;;;;20.43;68.87;98484.84;239062;1191;139830;-57
2022/08/22 04:48:32;;;;;;;18.50;7.30;;;;;;;20.48;68.84;98490.35;238725;1191;141883;-56
2022/08/22 04:53:47;;;;;;;11.00;6.40;;;;;;;20.57;68.93;98494.67;238991;1191;139857;-57
2022/08/22 04:59:00;;;;;;;15.80;7.20;;;;;;;20.63;69.03;98495.00;239032;1192;139291;-57
2022/08/22 05:04:09;;;;;;;14.90;7.60;;;;;;;20.69;68.89;98495.96;238841;1192;141447;-56
2022/08/22 05:09:21;;;;;;;13.20;6.40;;;;;;;20.73;68.76;98496.02;238797;1191;140988;-58
2022/08/22 05:14:32;;;;;;;15.30;7.40;;;;;;;20.76;68.75;98498.11;238853;1191;141010;-57
2022/08/22 05:19:41;;;;;;;13.10;7.30;;;;;;;20.78;68.89;98502.06;239006;1190;139793;-57
2022/08/22 05:24:48;;;;;;;16.90;8.00;;;;;;;20.80;68.90;98509.02;238214;1190;139795;-57
2022/08/22 05:29:59;;;;;;;13.70;7.00;;;;;;;20.80;68.71;98516.56;238787;1192;138894;-57
2022/08/22 05:35:07;;;;;;;13.50;7.30;;;;;;;20.81;68.70;98518.86;238777;1191;141211;-58
2022/08/22 05:40:19;;;;;;;12.40;7.80;;;;;;;20.85;68.77;98524.35;238666;1191;139461;-58
2022/08/22 05:45:25;;;;;;;11.80;7.40;;;;;;;20.90;68.96;98530.10;238979;1190;139085;-58
2022/08/22 05:50:34;;;;;;;15.50;8.20;;;;;;;20.91;68.80;98534.41;238782;1192;139630;-57
2022/08/22 05:55:37;;;;;;;14.70;7.00;;;;;;;20.90;68.86;98540.91;238894;1190;139014;-58
2022/08/22 06:00:44;;;;;;;16.60;8.20;;;;;;;20.94;68.73;98545.23;239039;1190;140131;-57
2022/08/22 06:05:52;;;;;;;15.90;7.40;;;;;;;20.96;68.79;98545.35;238572;1191;139842;-57
2022/08/22 06:11:02;;;;;;;14.80;7.40;;;;;;;21.05;68.97;98553.83;237265;1191;139652;-57
2022/08/22 06:16:11;;;;;;;11.30;7.70;;;;;;;21.10;68.90;98550.16;238981;1192;139858;-57
2022/08/22 06:21:27;;;;;;;16.00;8.10;;;;;;;21.08;68.71;98548.77;239078;1190;139024;-57
2022/08/22 06:26:45;;;;;;;14.10;7.70;;;;;;;21.08;68.81;98544.61;238776;1191;140129;-58
2022/08/22 06:31:50;;;;;;;22.40;15.20;;;;;;;21.13;68.92;98548.22;238837;1192;140296;-57
2022/08/22 06:36:56;;;;;;;17.20;9.10;;;;;;;21.24;69.22;98555.98;238974;1190;140001;-57
2022/08/22 06:42:07;;;;;;;;;;;;;;;21.29;69.03;98559.39;238726;1192;139031;-58
2022/08/22 06:47:25;;;;;;;15.00;9.60;;;;;;;21.29;68.96;98551.90;239223;1190;125039;-58
2022/08/22 06:52:31;;;;;;;15.60;8.90;;;;;;;21.32;69.02;98550.71;238080;1190;140120;-58
2022/08/22 06:57:42;;;;;;;17.10;10.30;;;;;;;21.40;69.15;98545.63;238996;1190;139888;-57
2022/08/22 07:02:53;;;;;;;13.40;9.60;;;;;;;21.49;69.08;98551.85;238830;1192;139455;-58
2022/08/22 07:07:56;;;;;;;15.50;10.60;;;;;;;21.56;69.14;98556.45;238904;1191;139090;-57
2022/08/22 07:13:00;;;;;;;13.90;9.60;;;;;;;21.59;69.03;98555.21;238973;1191;139460;-58
2022/08/22 07:18:26;;;;;;;12.90;9.50;;;;;;;21.59;68.94;98558.07;239053;1191;139671;-58
2022/08/22 07:23:44;;;;;;;15.30;10.10;;;;;;;21.64;69.09;98564.40;238879;1191;139505;-58
2022/08/22 07:28:55;;;;;;;25.80;10.50;;;;;;;21.71;68.96;98568.39;237877;1191;139494;-58
2022/08/22 07:34:36;;;;;;;14.30;9.90;;;;;;;21.72;68.91;98575.11;238987;1191;139579;-58
2022/08/22 07:39:56;;;;;;;15.60;10.10;;;;;;;21.78;69.18;98575.54;239009;1190;138668;-58
2022/08/22 07:45:19;;;;;;;15.30;10.30;;;;;;;21.88;69.23;98577.47;239063;1190;139608;-58
2022/08/22 07:50:27;;;;;;;15.80;10.40;;;;;;;21.96;69.10;98576.57;238904;1190;139194;-59
2022/08/22 07:55:31;;;;;;;20.30;12.20;;;;;;;21.96;68.85;98579.55;238765;1191;138905;-57
2022/08/22 08:00:42;;;;;;;21.30;10.40;;;;;;;21.88;68.57;98576.63;238569;1190;140722;-58
2022/08/22 08:05:45;;;;;;;16.70;10.10;;;;;;;21.88;68.67;98578.14;239002;1192;140434;-58
2022/08/22 08:10:51;;;;;;;18.00;11.40;;;;;;;21.90;68.61;98571.98;238832;1191;139756;-58
2022/08/22 08:15:54;;;;;;;22.60;11.50;;;;;;;21.92;68.79;98574.16;238947;1192;139269;-59
2022/08/22 08:21:03;;;;;;;16.60;11.10;;;;;;;21.91;68.68;98570.44;238686;1192;139277;-58
2022/08/22 08:26:14;;;;;;;17.20;10.20;;;;;;;21.92;68.73;98568.26;239036;1191;139220;-58
2022/08/22 08:31:36;;;;;;;18.20;11.20;;;;;;;22.00;68.88;98567.98;238681;1192;140843;-58
2022/08/22 08:37:03;;;;;;;16.20;10.90;;;;;;;22.11;68.99;98568.52;239006;1191;139473;-58
2022/08/22 08:42:21;;;;;;;17.90;11.90;;;;;;;22.22;69.13;98567.04;238674;1190;139539;-57
2022/08/22 08:48:13;;;;;;;21.00;11.50;;;;;;;22.32;69.07;98563.89;238856;1192;139429;-59
2022/08/22 08:53:25;;;;;;;17.70;11.00;;;;;;;22.42;69.20;98564.45;238579;1192;139062;-58
2022/08/22 08:58:34;;;;;;;18.50;10.70;;;;;;;22.54;69.08;98563.41;238873;1191;140200;-60
2022/08/22 09:04:01;;;;;;;21.30;13.70;;;;;;;22.66;69.16;98569.79;238952;1190;139897;-60
2022/08/22 09:09:24;;;;;;;;;;;;;;;22.80;69.29;98570.56;238508;1190;138901;-58
2022/08/22 09:14:49;;;;;;;22.90;14.40;;;;;;;22.87;68.93;98573.55;237402;1190;125039;-58
2022/08/22 09:19:55;;;;;;;24.90;13.80;;;;;;;22.86;68.73;98577.11;238856;1191;139835;-60
2022/08/22 09:25:17;;;;;;;22.70;11.90;;;;;;;22.85;68.46;98578.44;238814;1190;140197;-60
2022/08/22 09:30:54;;;;;;;28.40;14.50;;;;;;;22.89;68.68;98580.39;238949;1190;140034;-58
2022/08/22 09:36:06;;;;;;;26.20;13.20;;;;;;;22.91;68.70;98588.73;237665;1192;140068;-59
2022/08/22 09:41:32;;;;;;;18.20;12.80;;;;;;;22.86;68.46;98596.92;239179;1190;210905;-59
2022/08/22 09:46:55;;;;;;;21.20;12.40;;;;;;;22.82;68.48;98603.79;239033;1192;139787;-58
2022/08/22 09:52:12;;;;;;;24.00;13.10;;;;;;;22.81;68.51;98600.14;238972;1192;209674;-58
2022/08/22 09:57:39;;;;;;;22.80;13.80;;;;;;;22.80;68.35;98600.81;239070;1190;139357;-58
2022/08/22 10:02:45;;;;;;;22.10;14.80;;;;;;;22.77;68.42;98607.53;238272;1192;140863;-59
2022/08/22 10:08:04;;;;;;;23.00;14.50;;;;;;;22.68;68.48;98610.59;238931;1191;139981;-58
2022/08/22 10:13:39;;;;;;;20.10;14.10;;;;;;;22.60;68.36;98604.84;238955;1190;141837;-57
2022/08/22 10:19:03;;;;;;;23.10;15.20;;;;;;;22.54;68.49;98599.93;239042;1190;139999;-59
2022/08/22 10:24:38;;;;;;;24.10;15.20;;;;;;;22.51;68.66;98597.45;238912;1190;139236;-59
2022/08/22 10:30:06;;;;;;;21.40;15.20;;;;;;;22.44;68.71;98600.17;237877;1190;140434;-58
2022/08/22 10:35:30;;;;;;;20.50;14.00;;;;;;;22.40;68.68;98607.20;238807;1190;139340;-58
2022/08/22 10:40:38;;;;;;;20.60;14.00;;;;;;;22.37;68.77;98615.63;238893;1192;139999;-58
2022/08/22 10:45:50;;;;;;;21.00;14.00;;;;;;;22.36;68.81;98624.11;237960;1192;139694;-58
2022/08/22 10:51:03;;;;;;;23.00;14.10;;;;;;;22.34;69.06;98617.27;237639;1190;140381;-59
2022/08/22 10:56:19;;;;;;;21.50;14.90;;;;;;;22.32;69.06;98604.69;237484;1190;139325;-58
2022/08/22 11:01:28;;;;;;;20.60;13.30;;;;;;;22.32;69.33;98597.67;238669;1190;139274;-58
2022/08/22 11:06:46;;;;;;;16.50;12.70;;;;;;;22.35;69.49;98599.81;238899;1190;140917;-58
2022/08/22 11:12:27;;;;;;;16.80;12.50;;;;;;;22.41;69.61;98602.30;238721;1192;140080;-59
2022/08/22 11:18:01;;;;;;;17.90;14.50;;;;;;;22.53;70.00;98600.25;239008;1191;140499;-58
2022/08/22 11:23:31;;;;;;;20.30;14.00;;;;;;;22.75;70.22;98597.27;239041;1190;139523;-58
2022/08/22 11:28:39;;;;;;;20.50;14.30;;;;;;;23.03;70.43;98588.10;238522;1191;140003;-59
2022/08/22 11:34:02;;;;;;;22.60;15.70;;;;;;;23.37;70.62;98578.34;238966;1190;140194;-59
2022/08/22 11:39:41;;;;;;;22.50;17.80;;;;;;;23.76;70.67;98564.16;238927;1190;140035;-59
2022/08/22 11:44:53;;;;;;;22.70;16.50;;;;;;;24.31;70.88;98554.70;238651;1190;140012;-58
2022/08/22 11:50:41;;;;;;;23.30;17.10;;;;;;;24.83;70.58;98552.52;238690;1192;141323;-59
2022/08/22 11:56:04;;;;;;;22.60;18.70;;;;;;;25.36;70.21;98554.17;238746;1190;140646;-59
2022/08/22 12:01:14;;;;;;;20.80;16.80;;;;;;;25.72;69.45;98548.46;238677;1192;139850;-59
2022/08/22 12:06:44;;;;;;;21.30;15.30;;;;;;;25.99;68.75;98544.50;238833;1192;140666;-58
2022/08/22 12:12:00;;;;;;;23.10;16.10;;;;;;;26.26;68.13;98532.37;238960;1192;140536;-59
2022/08/22 12:17:28;;;;;;;22.70;13.40;;;;;;;26.49;67.70;98533.92;238712;1192;139226;-58
2022/08/22 12:23:23;;;;;;;20.10;15.00;;;;;;;26.70;67.35;98527.34;238924;1192;140036;-59
2022/08/22 12:28:55;;;;;;;18.80;14.10;;;;;;;26.63;66.25;98525.02;238577;1191;139441;-59
2022/08/22 12:34:30;;;;;;;16.20;12.30;;;;;;;26.39;65.76;98522.60;238655;1192;140579;-60
2022/08/22 12:39:45;;;;;;;17.10;11.60;;;;;;;26.32;65.93;98527.59;238582;1192;139967;-59
2022/08/22 12:45:20;;;;;;;14.80;11.40;;;;;;;26.47;65.62;98523.85;237873;1192;140111;-60
2022/08/22 12:50:34;;;;;;;16.10;10.40;;;;;;;26.42;64.98;98526.52;238840;1190;139764;-59
2022/08/22 12:55:53;;;;;;;19.50;13.30;;;;;;;26.33;64.92;98526.83;238389;1192;140024;-59
2022/08/22 13:01:04;;;;;;;23.60;15.30;;;;;;;26.45;64.68;98527.74;238833;1190;139299;-59
2022/08/22 13:06:36;;;;;;;21.70;13.90;;;;;;;26.40;64.51;98524.24;238878;1191;139301;-58
2022/08/22 13:11:42;;;;;;;16.70;12.30;;;;;;;26.45;64.29;98531.75;238741;1192;139688;-59
2022/08/22 13:16:50;;;;;;;25.20;15.30;;;;;;;26.50;64.52;98530.39;238512;1192;140122;-59
2022/08/22 13:22:10;;;;;;;23.90;14.90;;;;;;;26.75;64.52;98526.27;238646;1190;139922;-59
2022/08/22 13:27:19;;;;;;;18.10;14.70;;;;;;;27.06;64.32;98525.44;238837;1190;139803;-59
2022/08/22 13:32:37;;;;;;;16.10;13.00;;;;;;;27.33;63.91;98524.91;238637;1191;139336;-58
2022/08/22 13:37:48;;;;;;;22.10;15.00;;;;;;;27.52;63.23;98516.60;238933;1190;139525;-59
2022/08/22 13:43:01;;;;;;;20.80;14.50;;;;;;;27.49;62.32;98516.61;238798;1192;139794;-59
2022/08/22 13:48:10;;;;;;;24.40;14.20;;;;;;;27.55;62.33;98512.25;238880;1190;140036;-59
2022/08/22 13:53:28;;;;;;;16.40;12.70;;;;;;;27.48;61.78;98506.23;238614;1192;139873;-58
2022/08/22 13:58:44;;;;;;;20.20;12.60;;;;;;;27.30;61.28;98509.45;238412;1192;139591;-58
2022/08/22 14:03:56;;;;;;;19.20;12.70;;;;;;;27.09;61.09;98504.70;237809;1192;141118;-57
2022/08/22 14:09:19;;;;;;;16.30;12.00;;;;;;;27.02;61.34;98498.83;238642;1190;139856;-58
2022/08/22 14:14:37;;;;;;;16.90;12.50;;;;;;;26.97;61.28;98494.21;238919;1191;140742;-59
2022/08/22 14:19:46;;;;;;;20.20;12.90;;;;;;;26.99;61.26;98485.56;238751;1192;140168;-59
2022/08/22 14:25:22;;;;;;;16.10;11.90;;;;;;;27.07;61.32;98492.02;238105;1192;140817;-59
2022/08/22 14:30:50;;;;;;;20.60;11.70;;;;;;;27.11;61.26;98496.97;238692;1192;139532;-59
2022/08/22 14:36:11;;;;;;;17.00;11.30;;;;;;;26.99;60.65;98496.48;238525;1191;139803;-59
2022/08/22 14:41:31;;;;;;;18.40;11.50;;;;;;;26.83;60.71;98501.61;238814;1191;140381;-59
2022/08/22 14:46:58;;;;;;;21.40;13.20;;;;;;;26.62;60.92;98503.30;238933;1192;139741;-58
2022/08/22 14:52:08;;;;;;;21.00;14.00;;;;;;;26.44;60.86;98501.70;238580;1192;139297;-58
2022/08/22 14:57:21;;;;;;;19.60;13.00;;;;;;;26.31;61.06;98495.90;238646;1191;139216;-57
2022/08/22 15:02:28;;;;;;;21.20;13.60;;;;;;;26.18;61.03;98494.09;238869;1190;139617;-57
2022/08/22 15:07:35;;;;;;;15.60;12.30;;;;;;;26.11;61.21;98493.16;238993;1190;139211;-58
2022/08/22 15:12:47;;;;;;;20.90;13.10;;;;;;;26.05;61.26;98493.08;238706;1192;139340;-58
2022/08/22 15:17:51;;;;;;;20.80;11.60;;;;;;;25.99;61.13;98497.14;238360;1190;139438;-58
2022/08/22 15:23:02;;;;;;;14.40;11.80;;;;;;;25.97;61.09;98495.02;238947;1190;140084;-59
2022/08/22 15:28:11;;;;;;;18.70;12.20;;;;;;;25.98;61.31;98502.23;238883;1190;139949;-59
2022/08/22 15:33:26;;;;;;;16.30;12.80;;;;;;;25.96;61.16;98502.12;238675;1190;139125;-59
2022/08/22 15:38:37;;;;;;;21.60;12.60;;;;;;;25.92;61.03;98505.18;238729;1190;139213;-60
2022/08/22 15:43:48;;;;;;;18.20;12.50;;;;;;;25.89;61.18;98501.44;238795;1191;139190;-59
2022/08/22 15:49:18;;;;;;;23.20;14.00;;;;;;;25.85;61.30;98503.98;238859;1192;139809;-59
2022/08/22 15:54:41;;;;;;;18.00;12.90;;;;;;;25.80;61.18;98504.93;238866;1191;140052;-59
2022/08/22 15:59:56;;;;;;;16.40;11.30;;;;;;;25.77;61.54;98505.95;238760;1192;139406;-60
2022/08/22 16:05:08;;;;;;;17.70;11.70;;;;;;;25.77;61.71;98510.48;238762;1192;139409;-58
2022/08/22 16:10:19;;;;;;;15.80;11.90;;;;;;;25.77;62.14;98516.30;238525;1192;139699;-58
2022/08/22 16:15:50;;;;;;;15.90;12.50;;;;;;;25.76;62.28;98519.62;238867;1191;162133;-59
2022/08/22 16:21:03;;;;;;;14.90;10.50;;;;;;;25.71;62.40;98523.38;238921;1190;139211;-58
2022/08/22 16:26:08;;;;;;;14.40;11.40;;;;;;;25.68;62.62;98529.54;238781;1191;139880;-59
2022/08/22 16:31:16;;;;;;;;;;;;;;;25.64;62.51;98525.23;238825;1191;139768;-59
2022/08/22 16:36:19;;;;;;;18.40;13.20;;;;;;;25.53;62.62;98536.02;238991;1191;125453;-59
2022/08/22 16:41:33;;;;;;;18.10;13.60;;;;;;;25.43;62.69;98533.09;238863;1192;140363;-58
2022/08/22 16:46:40;;;;;;;19.30;13.30;;;;;;;25.33;62.67;98517.36;238706;1190;139586;-58
2022/08/22 16:52:24;;;;;;;23.00;16.60;;;;;;;25.26;62.91;98511.92;238205;1191;141045;-58
2022/08/22 16:57:43;;;;;;;28.50;18.90;;;;;;;25.12;62.82;98509.58;238515;1192;139562;-58
2022/08/22 17:03:26;;;;;;;23.60;18.30;;;;;;;24.90;62.96;98521.02;238321;1191;139052;-58
2022/08/22 17:08:44;;;;;;;25.90;17.10;;;;;;;24.73;63.30;98523.48;238955;1190;139609;-59
2022/08/22 17:14:08;;;;;;;25.70;19.40;;;;;;;24.66;63.40;98531.38;238852;1190;140188;-58
2022/08/22 17:19:31;;;;;;;29.50;22.30;;;;;;;24.58;63.72;98532.91;238838;1190;140130;-58
2022/08/22 17:24:45;;;;;;;31.10;21.30;;;;;;;24.51;63.80;98541.89;238709;1191;140283;-58
2022/08/22 17:30:14;;;;;;;26.80;18.30;;;;;;;24.43;63.84;98550.31;238626;1192;139375;-57
2022/08/22 17:35:43;;;;;;;29.30;20.80;;;;;;;24.36;64.01;98546.30;238967;1190;140994;-58
2022/08/22 17:41:17;;;;;;;29.10;22.50;;;;;;;24.27;64.07;98548.77;239066;1190;139283;-58
2022/08/22 17:46:35;;;;;;;28.70;21.00;;;;;;;24.15;64.04;98549.81;238916;1190;139965;-56
2022/08/22 17:52:06;;;;;;;28.60;20.10;;;;;;;24.03;64.16;98554.55;238073;1190;139931;-60
2022/08/22 17:57:36;;;;;;;30.40;22.30;;;;;;;23.97;64.54;98556.95;238551;1192;139928;-56
2022/08/22 18:02:42;;;;;;;28.50;20.70;;;;;;;23.96;64.84;98565.86;238594;1192;139372;-57
2022/08/22 18:07:53;;;;;;;33.50;23.30;;;;;;;23.95;64.92;98589.82;238815;1190;139902;-57
2022/08/22 18:13:20;;;;;;;30.90;21.50;;;;;;;23.91;64.72;98593.27;237271;1192;139977;-59
2022/08/22 18:18:33;;;;;;;33.50;22.80;;;;;;;23.77;64.54;98588.67;237923;1192;140129;-59
2022/08/22 18:23:53;;;;;;;33.30;23.80;;;;;;;23.70;64.86;98583.70;237830;1191;140002;-59
2022/08/22 18:28:59;;;;;;;36.80;25.10;;;;;;;23.63;65.04;98579.45;238830;1191;139463;-57
2022/08/22 18:34:14;;;;;;;37.30;25.90;;;;;;;23.55;65.14;98577.96;237448;1192;140372;-59
2022/08/22 18:39:20;;;;;;;;;;;;;;;23.44;65.13;98583.16;238130;1192;140831;-58
2022/08/22 18:44:26;;;;;;;;;;;;;;;23.35;65.36;98581.66;238753;1192;126183;-57
2022/08/22 18:49:29;;;;;;;38.20;25.20;;;;;;;23.30;65.65;98575.75;238762;1191;125907;-57
2022/08/22 18:54:47;;;;;;;38.30;25.50;;;;;;;23.29;65.86;98586.93;238842;1191;139250;-57
2022/08/22 18:59:59;;;;;;;39.20;26.30;;;;;;;23.23;65.88;98589.27;237892;1192;139520;-58
2022/08/22 19:05:11;;;;;;;40.00;25.40;;;;;;;23.19;65.95;98585.62;238837;1192;140443;-58
2022/08/22 19:10:33;;;;;;;46.00;30.60;;;;;;;23.16;65.87;98578.73;238715;1191;142324;-57
2022/08/22 19:15:54;;;;;;;40.30;26.50;;;;;;;23.14;66.00;98588.05;237408;1192;145217;-58
2022/08/22 19:27:08;;;;;;;44.50;26.00;;;;;;;23.03;66.24;98608.87;238524;1192;140613;-57
2022/08/22 19:32:43;;;;;;;47.90;24.30;;;;;;;22.94;66.20;98623.52;238937;1190;140961;-58
2022/08/22 19:37:59;;;;;;;35.20;23.50;;;;;;;22.89;66.46;98624.50;238950;1190;140576;-57
2022/08/22 19:43:17;;;;;;;30.30;20.90;;;;;;;22.90;66.58;98638.48;238891;1192;143091;-57
2022/08/22 19:48:30;;;;;;;31.00;19.40;;;;;;;22.83;66.58;98630.77;238981;1190;140117;-57
2022/08/22 19:53:40;;;;;;;19.40;14.00;;;;;;;22.77;66.66;98614.59;238928;1191;139384;-58
2022/08/22 19:58:53;;;;;;;18.30;13.00;;;;;;;22.72;66.63;98605.08;238881;1191;140284;-58
2022/08/22 20:04:08;;;;;;;22.40;14.50;;;;;;;22.67;66.89;98586.81;239028;1191;139759;-57
2022/08/22 20:09:31;;;;;;;22.50;14.50;;;;;;;22.62;66.96;98582.64;238890;1190;140555;-57
2022/08/22 20:14:38;;;;;;;17.80;11.90;;;;;;;22.57;67.08;98604.75;238937;1192;140181;-58
2022/08/22 20:19:51;;;;;;;13.80;9.80;;;;;;;22.48;66.94;98642.55;238609;1191;140509;-57
2022/08/22 20:25:20;;;;;;;10.70;8.10;;;;;;;22.28;66.85;98679.81;238628;1190;140275;-57
2022/08/22 20:30:45;;;;;;;7.80;6.20;;;;;;;22.09;66.91;98669.05;239004;1191;140249;-58
2022/08/22 20:35:57;;;;;;;;;;;;;;;21.94;67.15;98654.12;238036;1192;141096;-59
2022/08/22 20:41:12;;;;;;;8.50;4.80;;;;;;;21.87;67.30;98682.66;238836;1191;126610;-59
2022/08/22 20:46:48;;;;;;;7.50;4.70;;;;;;;21.87;67.59;98653.30;238672;1191;140227;-59
2022/08/22 20:52:03;;;;;;;7.50;3.80;;;;;;;21.85;67.58;98667.06;238437;1192;139478;-58
2022/08/22 20:57:18;;;;;;;5.20;3.90;;;;;;;21.76;67.63;98661.92;238985;1190;140310;-57
2022/08/22 21:02:28;;;;;;;6.50;3.50;;;;;;;21.68;67.73;98631.31;238773;1190;139874;-57
2022/08/22 21:07:41;;;;;;;5.30;3.50;;;;;;;21.67;67.74;98640.77;237883;1190;144679;-58
2022/08/22 21:13:10;;;;;;;7.20;3.90;;;;;;;21.66;67.84;98629.89;238771;1192;140338;-58
2022/08/22 21:18:35;;;;;;;6.20;4.10;;;;;;;21.64;67.80;98623.48;238682;1190;146665;-58
2022/08/22 21:23:54;;;;;;;5.60;3.90;;;;;;;21.60;67.97;98618.15;238878;1191;140421;-58
2022/08/22 21:29:04;;;;;;;6.20;3.70;;;;;;;21.56;68.02;98624.05;238594;1191;139852;-57
2022/08/22 21:34:17;;;;;;;5.10;3.70;;;;;;;21.54;68.16;98634.36;238925;1192;140070;-58
2022/08/22 21:39:24;;;;;;;7.30;4.10;;;;;;;21.54;68.13;98648.97;238864;1192;139471;-57
2022/08/22 21:44:29;;;;;;;7.90;4.10;;;;;;;21.61;68.54;98647.39;238939;1192;139443;-56
2022/08/22 21:49:32;;;;;;;8.10;4.90;;;;;;;21.61;68.39;98645.77;237264;1192;139883;-57
2022/08/22 21:54:38;;;;;;;6.50;4.30;;;;;;;21.58;68.32;98620.52;237455;1190;140345;-57
2022/08/22 21:59:44;;;;;;;5.70;4.10;;;;;;;21.61;68.53;98596.68;239156;1190;140102;-57
2022/08/22 22:05:10;;;;;;;6.80;3.80;;;;;;;21.67;68.47;98579.23;238351;1192;140086;-57
2022/08/22 22:10:18;;;;;;;5.90;4.30;;;;;;;21.69;68.52;98570.88;238353;1192;140746;-57
2022/08/22 22:15:24;;;;;;;5.30;3.80;;;;;;;21.69;68.61;98559.50;239046;1191;139958;-58
2022/08/22 22:20:27;;;;;;;8.50;4.40;;;;;;;21.67;68.51;98549.21;238963;1190;139715;-57
2022/08/22 22:25:31;;;;;;;3.60;2.90;;;;;;;21.71;68.68;98549.83;238904;1190;140385;-58
2022/08/22 22:30:44;;;;;;;4.70;3.10;;;;;;;21.72;68.53;98532.15;239078;1190;139749;-57
2022/08/22 22:35:48;;;;;;;5.10;3.00;;;;;;;21.65;68.30;98523.11;238912;1191;139416;-60
2022/08/22 22:40:52;;;;;;;5.50;2.70;;;;;;;21.52;68.24;98525.88;239001;1190;140239;-58
2022/08/22 22:45:55;;;;;;;4.00;2.60;;;;;;;21.44;68.27;98534.00;238510;1189;140055;-57
2022/08/22 22:50:58;;;;;;;7.50;3.30;;;;;;;21.43;68.49;98529.47;238857;1190;139435;-58
2022/08/22 22:56:01;;;;;;;5.00;2.70;;;;;;;21.41;68.51;98523.73;238556;1192;140220;-59
2022/08/22 23:01:17;;;;;;;3.40;2.70;;;;;;;21.39;68.69;98530.77;237632;1190;139859;-57
2022/08/22 23:06:22;;;;;;;4.10;2.70;;;;;;;21.36;68.75;98528.08;237765;1192;139682;-58
2022/08/22 23:11:28;;;;;;;5.40;2.50;;;;;;;21.34;68.74;98531.95;237542;1190;140109;-57
2022/08/22 23:16:31;;;;;;;5.80;2.70;;;;;;;21.35;68.81;98535.64;238593;1192;141687;-58
2022/08/22 23:21:40;;;;;;;3.80;3.10;;;;;;;21.32;68.86;98536.23;238745;1190;139167;-57
2022/08/22 23:26:43;;;;;;;5.10;3.30;;;;;;;21.30;68.97;98531.80;238551;1191;138780;-57
2022/08/22 23:31:54;;;;;;;5.30;3.00;;;;;;;21.26;69.01;98521.58;238394;1192;140440;-57
2022/08/22 23:36:59;;;;;;;4.00;2.70;;;;;;;21.26;69.11;98524.48;238954;1190;139923;-57
2022/08/22 23:42:06;;;;;;;3.00;2.70;;;;;;;21.28;69.16;98536.55;238731;1191;140313;-57
2022/08/22 23:47:09;;;;;;;4.00;3.30;;;;;;;21.30;69.18;98547.02;239104;1191;139053;-57
2022/08/22 23:52:12;;;;;;;4.20;3.20;;;;;;;21.29;69.19;98563.75;239005;1190;139835;-57
2022/08/22 23:57:16;;;;;;;3.60;2.90;;;;;;;21.26;69.23;98564.14;238841;1192;140865;-57
